Time;durP1;ratioP1;P1;durP2;ratioP2;P2;SDS_P1;SDS_P2;PMS_P1;PMS_P2;Temp;Humidity;BMP_temperature;BMP_pressure;BME280_temperature;BME280_humidity;BME280_pressure;Samples;Min_cycle;Max_cycle;Signal;HPM_P1;HPM_P2
2022/08/20 00:00:21;;;;;;;14.23;8.30;;;;;;;22.02;92.71;99328.47;4377381;32;34743;-80
2022/08/20 00:02:55;;;;;;;12.85;8.23;;;;;;;22.10;90.74;99331.94;4377797;32;34719;-80
2022/08/20 00:05:28;;;;;;;12.88;8.13;;;;;;;21.83;92.69;99335.66;4378047;32;34317;-79
2022/08/20 00:07:57;;;;;;;14.57;8.75;;;;;;;21.74;92.82;99340.13;4377413;32;34688;-80
2022/08/20 00:10:26;;;;;;;13.62;7.97;;;;;;;21.62;95.08;99340.22;4377613;32;33962;-79
2022/08/20 00:12:54;;;;;;;15.95;8.63;;;;;;;21.86;92.81;99349.69;4378697;32;34248;-79
2022/08/20 00:15:27;;;;;;;12.98;7.37;;;;;;;21.88;91.65;99352.31;4377736;32;33381;-80
2022/08/20 00:17:55;;;;;;;14.57;7.65;;;;;;;21.87;91.26;99355.88;4364177;32;33691;-81
2022/08/20 00:20:28;;;;;;;14.32;8.18;;;;;;;21.65;92.75;99350.75;4363534;32;34233;-79
2022/08/20 00:22:56;;;;;;;14.63;8.05;;;;;;;21.64;93.27;99353.41;4371316;32;34092;-81
2022/08/20 00:25:26;;;;;;;10.70;7.45;;;;;;;21.60;93.62;99352.56;4377987;32;33718;-78
2022/08/20 00:27:54;;;;;;;14.87;8.05;;;;;;;21.51;94.46;99363.16;4363478;32;33744;-78
2022/08/20 00:30:23;;;;;;;14.35;7.68;;;;;;;21.75;92.72;99362.97;4377566;32;34033;-78
2022/08/20 00:32:54;;;;;;;13.07;7.95;;;;;;;21.72;92.58;99360.34;4377460;32;34887;-78
2022/08/20 00:35:24;;;;;;;13.38;7.65;;;;;;;22.19;89.20;99361.72;4380005;32;33694;-79
2022/08/20 00:37:52;;;;;;;12.30;7.10;;;;;;;22.30;88.77;99366.06;4373080;32;33876;-79
2022/08/20 00:40:37;;;;;;;12.20;6.93;;;;;;;22.99;83.90;99362.63;4374174;32;32996;-79
2022/08/20 00:43:07;;;;;;;12.27;7.28;;;;;;;23.08;83.41;99366.94;4364416;32;33993;-79
2022/08/20 00:45:34;;;;;;;13.30;7.00;;;;;;;23.53;80.27;99361.94;4363735;32;34334;-79
2022/08/20 00:48:02;;;;;;;11.93;6.95;;;;;;;22.84;84.03;99365.47;4377562;32;34043;-79
2022/08/20 00:50:36;;;;;;;11.88;7.05;;;;;;;23.20;81.64;99350.94;4377201;32;33796;-79
2022/08/20 00:53:04;;;;;;;13.65;7.15;;;;;;;23.09;82.61;99352.84;4363900;32;33964;-79
2022/08/20 00:55:33;;;;;;;11.52;7.57;;;;;;;22.88;83.60;99354.84;4376451;32;33796;-79
2022/08/20 00:58:04;;;;;;;16.35;7.30;;;;;;;23.42;80.48;99340.06;4376324;32;33951;-79
2022/08/20 01:00:36;;;;;;;13.13;7.30;;;;;;;23.25;81.45;99338.53;4365894;32;33670;-79
2022/08/20 01:03:10;;;;;;;10.25;6.82;;;;;;;23.08;83.52;99340.53;4375356;32;34215;-79
2022/08/20 01:05:41;;;;;;;18.37;8.15;;;;;;;23.36;81.70;99331.31;4377722;32;34471;-79
2022/08/20 01:08:08;;;;;;;15.00;6.80;;;;;;;23.15;82.57;99342.19;4361971;32;33568;-78
2022/08/20 01:10:38;;;;;;;12.23;6.03;;;;;;;23.74;78.33;99337.78;4377936;32;34608;-78
2022/08/20 01:13:09;;;;;;;10.48;6.12;;;;;;;23.21;80.25;99342.09;4373946;32;33235;-78
2022/08/20 01:15:40;;;;;;;14.63;7.45;;;;;;;22.71;83.29;99340.97;4362548;32;33684;-78
2022/08/20 01:18:16;;;;;;;11.85;7.18;;;;;;;21.39;91.31;99343.88;4377314;32;33961;-78
2022/08/20 01:21:00;;;;;;;15.07;9.05;;;;;;;21.90;87.27;99342.62;4376795;32;33975;-77
2022/08/20 01:23:37;;;;;;;17.70;10.18;;;;;;;21.55;91.31;99333.25;4363146;32;34024;-78
2022/08/20 01:26:09;;;;;;;17.80;11.45;;;;;;;21.46;91.98;99338.59;4363388;32;34095;-77
2022/08/20 01:28:43;;;;;;;20.08;11.93;;;;;;;21.48;93.61;99323.63;4374103;32;34652;-77
2022/08/20 01:31:14;;;;;;;19.58;11.50;;;;;;;21.30;95.33;99328.09;4377279;32;34658;-77
2022/08/20 01:33:44;;;;;;;19.02;12.43;;;;;;;21.75;91.37;99320.81;4376931;32;34732;-77
2022/08/20 01:36:14;;;;;;;16.52;11.65;;;;;;;21.84;90.62;99313.69;4378900;32;33815;-77
2022/08/20 01:38:43;;;;;;;21.10;12.57;;;;;;;21.75;91.91;99307.63;4352865;32;32602;-77
2022/08/20 01:41:21;;;;;;;15.73;11.80;;;;;;;21.70;92.14;99296.22;4378072;32;34824;-77
2022/08/20 01:43:56;;;;;;;17.02;12.23;;;;;;;21.83;90.42;99301.38;4378717;32;33989;-78
2022/08/20 01:46:28;;;;;;;21.08;12.50;;;;;;;21.28;95.34;99308.81;4377768;32;33628;-78
2022/08/20 01:48:56;;;;;;;21.83;12.15;;;;;;;20.84;99.78;99302.03;4367931;32;33079;-78
2022/08/20 01:51:26;;;;;;;21.60;11.82;;;;;;;20.88;99.00;99313.44;4370013;32;34133;-77
2022/08/20 01:53:55;;;;;;;18.90;12.05;;;;;;;21.07;99.18;99316.84;4378915;32;33963;-77
2022/08/20 01:56:29;;;;;;;19.48;12.98;;;;;;;21.46;95.96;99312.22;4378937;32;33249;-78
2022/08/20 01:59:01;;;;;;;22.75;12.70;;;;;;;22.10;90.80;99316.97;4379054;32;34578;-78
2022/08/20 02:01:38;;;;;;;20.60;11.95;;;;;;;20.87;99.43;99311.69;4378619;32;33138;-78
2022/08/20 02:04:13;;;;;;;;;;;;;;;21.26;97.80;99302.69;4378117;32;34765;-78
2022/08/20 02:06:45;;;;;;;20.45;12.05;;;;;;;22.17;88.63;99296.66;4378598;32;33359;-77
2022/08/20 02:09:26;;;;;;;20.12;10.95;;;;;;;22.40;86.35;99293.81;4378873;32;33897;-78
2022/08/20 02:11:55;;;;;;;18.95;9.43;;;;;;;21.90;89.65;99287.25;4379152;32;34289;-76
2022/08/20 02:14:23;;;;;;;15.18;9.05;;;;;;;22.77;82.40;99277.50;4378156;32;34021;-78
2022/08/20 02:16:50;;;;;;;18.58;9.48;;;;;;;21.88;85.93;99278.50;4366596;32;33580;-77
2022/08/20 02:19:28;;;;;;;17.48;10.00;;;;;;;21.08;93.78;99287.88;4374294;32;34470;-78
2022/08/20 02:21:57;;;;;;;;;;;;;;;20.79;97.24;99288.91;4379575;32;34758;-77
2022/08/20 02:24:25;;;;;;;15.63;8.95;;;;;;;20.64;97.76;99293.38;4377522;32;34424;-77
2022/08/20 02:26:53;;;;;;;11.60;7.80;;;;;;;21.43;92.60;99291.16;4373123;32;33649;-77
2022/08/20 02:29:21;;;;;;;15.52;8.70;;;;;;;20.99;94.01;99285.28;4349808;32;33667;-77
2022/08/20 02:31:48;;;;;;;12.07;8.13;;;;;;;21.33;91.04;99285.09;4378522;32;33938;-78
2022/08/20 02:34:36;;;;;;;13.55;7.50;;;;;;;21.57;88.90;99298.09;4375719;32;34190;-78
2022/08/20 02:37:05;;;;;;;15.48;8.45;;;;;;;21.16;91.37;99303.62;4364699;32;33038;-78
2022/08/20 02:39:33;;;;;;;14.65;9.00;;;;;;;21.02;93.57;99315.13;4378444;32;33791;-77
2022/08/20 02:42:02;;;;;;;17.70;10.07;;;;;;;20.97;94.87;99321.28;4378759;32;34448;-78
2022/08/20 02:44:30;;;;;;;14.25;9.25;;;;;;;21.04;94.98;99323.00;4370552;32;34686;-77
2022/08/20 02:46:58;;;;;;;15.18;8.75;;;;;;;22.21;86.76;99308.94;4377117;32;33799;-77
2022/08/20 02:49:26;;;;;;;15.18;8.63;;;;;;;22.83;82.22;99314.44;4378264;32;34764;-77
2022/08/20 02:51:54;;;;;;;14.18;8.30;;;;;;;22.46;83.29;99309.56;4378348;32;33796;-77
2022/08/20 02:54:21;;;;;;;15.98;7.82;;;;;;;22.08;86.05;99316.13;4378234;32;35023;-77
2022/08/20 02:56:50;;;;;;;13.85;8.25;;;;;;;21.17;90.98;99308.00;4378298;32;34402;-77
2022/08/20 02:59:18;;;;;;;15.15;8.73;;;;;;;21.22;92.26;99329.91;4377957;32;33792;-77
2022/08/20 03:01:47;;;;;;;14.30;7.80;;;;;;;22.51;83.92;99331.50;4378315;32;33746;-77
2022/08/20 03:04:30;;;;;;;15.15;7.62;;;;;;;22.00;85.98;99336.41;4373071;32;34164;-78
2022/08/20 03:06:58;;;;;;;16.65;7.93;;;;;;;22.25;84.71;99341.47;4378498;32;34502;-78
2022/08/20 03:09:25;;;;;;;15.45;8.90;;;;;;;21.61;88.00;99359.56;4378220;32;33891;-78
2022/08/20 03:11:53;;;;;;;15.55;8.75;;;;;;;20.85;95.00;99409.09;4364526;32;34923;-77
2022/08/20 03:14:21;;;;;;;14.75;9.50;;;;;;;20.38;100.00;99428.47;4378133;32;34514;-78
2022/08/20 03:16:49;;;;;;;18.33;9.32;;;;;;;20.50;99.14;99422.31;4377861;32;34529;-77
2022/08/20 03:19:17;;;;;;;14.90;8.68;;;;;;;20.98;93.26;99415.22;4377697;32;33852;-77
2022/08/20 03:21:44;;;;;;;12.75;8.80;;;;;;;22.34;85.51;99396.78;4378272;32;33905;-76
2022/08/20 03:24:12;;;;;;;15.20;9.07;;;;;;;22.96;80.36;99405.78;4377886;32;33912;-78
2022/08/20 03:26:39;;;;;;;13.98;9.40;;;;;;;21.73;87.73;99417.47;4377734;32;33470;-77
2022/08/20 03:29:07;;;;;;;16.85;10.02;;;;;;;22.25;85.95;99425.88;4377808;32;33876;-77
2022/08/20 03:31:35;;;;;;;17.90;10.52;;;;;;;21.71;89.41;99429.81;4377880;32;33673;-77
2022/08/20 03:34:03;;;;;;;13.98;9.40;;;;;;;22.11;87.23;99429.47;4378349;32;34265;-77
2022/08/20 03:36:30;;;;;;;19.12;10.88;;;;;;;22.49;84.27;99415.13;4377787;32;34277;-76
2022/08/20 03:39:00;;;;;;;18.17;11.85;;;;;;;21.94;87.02;99410.28;4378147;32;34720;-78
2022/08/20 03:41:28;;;;;;;19.83;11.88;;;;;;;20.58;100.00;99426.66;4377879;32;33688;-76
2022/08/20 03:43:56;;;;;;;20.15;11.70;;;;;;;21.57;91.73;99416.69;4378381;32;34663;-77
2022/08/20 03:46:24;;;;;;;20.80;12.27;;;;;;;21.43;92.28;99417.62;4354448;32;32126;-78
2022/08/20 03:48:52;;;;;;;19.62;11.85;;;;;;;21.60;91.52;99415.81;4376991;32;34624;-77
2022/08/20 03:51:28;;;;;;;19.92;11.85;;;;;;;21.82;89.37;99413.87;4377582;32;33849;-80
2022/08/20 03:53:56;;;;;;;18.02;12.15;;;;;;;21.78;88.72;99410.41;4378349;32;33998;-76
2022/08/20 03:56:24;;;;;;;22.58;10.95;;;;;;;21.72;89.41;99399.91;4377838;32;33752;-79
2022/08/20 03:58:53;;;;;;;20.25;12.52;;;;;;;21.56;89.70;99393.00;4378190;32;32710;-76
2022/08/20 04:01:20;;;;;;;22.95;11.95;;;;;;;21.48;90.67;99405.31;4377221;32;33866;-77
2022/08/20 04:04:09;;;;;;;21.73;12.27;;;;;;;21.56;90.29;99404.41;4378561;32;34301;-77
2022/08/20 04:06:40;;;;;;;23.20;13.02;;;;;;;21.62;90.02;99419.31;4365231;32;33427;-78
2022/08/20 04:09:10;;;;;;;19.50;12.68;;;;;;;21.40;91.72;99424.66;4377499;32;34410;-78
2022/08/20 04:11:39;;;;;;;18.87;12.27;;;;;;;21.67;89.40;99420.16;4377397;32;33897;-78
2022/08/20 04:14:08;;;;;;;21.45;13.15;;;;;;;22.00;86.94;99410.25;4378198;32;32757;-77
2022/08/20 04:16:39;;;;;;;22.20;12.48;;;;;;;21.92;87.56;99386.59;4377802;32;33932;-78
2022/08/20 04:19:07;;;;;;;20.48;11.38;;;;;;;21.90;87.67;99364.59;4351544;32;32067;-78
2022/08/20 04:21:35;;;;;;;18.17;11.38;;;;;;;21.90;86.93;99348.78;4364551;32;33857;-77
2022/08/20 04:24:04;;;;;;;19.62;11.80;;;;;;;21.68;88.44;99356.00;4377753;32;34638;-77
2022/08/20 04:26:34;;;;;;;23.38;13.05;;;;;;;20.53;96.78;99360.03;4377984;32;33795;-76
2022/08/20 04:29:01;;;;;;;19.75;11.65;;;;;;;20.49;98.57;99370.56;4377723;32;33953;-76
2022/08/20 04:31:32;;;;;;;15.55;10.40;;;;;;;21.11;94.85;99374.78;4377209;32;34021;-77
2022/08/20 04:34:01;;;;;;;16.80;10.32;;;;;;;21.24;92.66;99372.94;4377949;32;34706;-77
2022/08/20 04:36:29;;;;;;;15.48;10.43;;;;;;;21.61;89.47;99370.09;4377276;32;33458;-77
2022/08/20 04:38:57;;;;;;;18.98;11.38;;;;;;;22.15;86.37;99367.91;4377148;32;33557;-77
2022/08/20 04:41:24;;;;;;;17.67;12.57;;;;;;;21.01;94.94;99373.94;4376755;32;34718;-77
2022/08/20 04:43:54;;;;;;;17.00;12.05;;;;;;;20.70;98.22;99385.44;4377965;32;34201;-77
2022/08/20 04:46:26;;;;;;;15.90;10.50;;;;;;;21.30;94.94;99386.06;4377428;32;33594;-76
2022/08/20 04:48:55;;;;;;;19.02;10.30;;;;;;;22.12;86.69;99367.94;4363701;32;34698;-77
2022/08/20 04:51:23;;;;;;;16.35;10.75;;;;;;;22.40;83.88;99365.06;4364118;32;33226;-76
2022/08/20 04:53:52;;;;;;;19.70;10.60;;;;;;;22.60;83.66;99369.25;4377583;32;34861;-77
2022/08/20 04:56:23;;;;;;;17.08;9.85;;;;;;;21.55;90.08;99375.41;4363708;32;33704;-77
2022/08/20 04:58:53;;;;;;;15.63;10.57;;;;;;;21.18;94.25;99391.41;4377233;32;33911;-77
2022/08/20 05:01:22;;;;;;;18.83;10.38;;;;;;;21.05;94.75;99403.75;4376764;32;34741;-77
2022/08/20 05:03:53;;;;;;;18.45;9.43;;;;;;;21.57;90.57;99400.00;4377208;32;34000;-76
2022/08/20 05:06:28;;;;;;;16.08;9.88;;;;;;;22.37;85.98;99404.69;4376653;32;33422;-76
2022/08/20 05:08:57;;;;;;;14.98;8.75;;;;;;;22.61;83.75;99397.41;4363112;32;33945;-76
2022/08/20 05:11:25;;;;;;;16.27;9.68;;;;;;;21.51;89.70;99394.78;4376908;32;34532;-77
2022/08/20 05:14:05;;;;;;;17.85;10.45;;;;;;;21.85;90.07;99386.66;4364462;32;34802;-77
2022/08/20 05:16:39;;;;;;;13.55;9.63;;;;;;;21.41;92.25;99383.37;4377259;32;33800;-76
2022/08/20 05:19:09;;;;;;;13.77;9.10;;;;;;;22.21;86.94;99387.22;4376375;32;33475;-77
2022/08/20 05:21:37;;;;;;;16.40;9.57;;;;;;;21.77;88.76;99392.84;4377166;32;33791;-77
2022/08/20 05:24:05;;;;;;;15.70;9.73;;;;;;;21.78;90.32;99394.56;4377214;32;34196;-77
2022/08/20 05:26:33;;;;;;;15.73;10.65;;;;;;;21.75;90.65;99393.72;4363763;32;33661;-77
2022/08/20 05:29:03;;;;;;;17.75;10.15;;;;;;;21.54;92.11;99400.91;4373964;32;34005;-77
2022/08/20 05:31:32;;;;;;;18.23;9.15;;;;;;;21.52;92.21;99391.28;4362428;32;33942;-77
2022/08/20 05:34:08;;;;;;;17.00;10.07;;;;;;;21.51;92.56;99389.50;4377472;32;34256;-77
2022/08/20 05:36:44;;;;;;;20.83;9.75;;;;;;;22.35;86.96;99380.09;4370872;32;33407;-77
2022/08/20 05:39:13;;;;;;;14.40;10.05;;;;;;;21.98;88.60;99372.44;4376227;32;34228;-76
2022/08/20 05:41:41;;;;;;;17.02;10.15;;;;;;;21.76;91.86;99379.66;4362095;32;34546;-76
2022/08/20 05:44:12;;;;;;;15.75;9.80;;;;;;;21.73;92.12;99370.03;4374984;32;34721;-77
2022/08/20 05:46:42;;;;;;;19.60;10.55;;;;;;;21.87;90.85;99366.41;4364119;32;34481;-77
2022/08/20 05:49:13;;;;;;;16.55;9.80;;;;;;;22.12;90.38;99367.94;4375133;32;34508;-76
2022/08/20 05:51:41;;;;;;;19.80;10.25;;;;;;;22.90;84.05;99368.87;4375461;32;34809;-77
2022/08/20 05:54:08;;;;;;;18.17;11.27;;;;;;;22.87;84.24;99371.59;4376579;32;34149;-76
2022/08/20 05:56:36;;;;;;;18.00;11.18;;;;;;;21.80;91.90;99376.97;4362879;32;34265;-77
2022/08/20 05:59:05;;;;;;;20.50;10.93;;;;;;;22.84;84.87;99390.09;4375069;32;33582;-77
2022/08/20 06:01:34;;;;;;;21.20;11.05;;;;;;;22.42;88.62;99380.88;4376304;32;33894;-76
2022/08/20 06:06:55;;;;;;;17.00;11.55;;;;;;;21.89;90.97;99376.06;4376998;32;33730;-79
2022/08/20 06:09:24;;;;;;;25.02;11.35;;;;;;;23.31;83.15;99356.97;4376741;32;34239;-78
2022/08/20 06:12:03;;;;;;;17.70;11.57;;;;;;;23.74;79.37;99352.78;4375956;32;34708;-81
2022/08/20 06:14:31;;;;;;;19.30;11.65;;;;;;;22.45;87.66;99383.50;4374099;32;34075;-79
2022/08/20 06:17:07;;;;;;;15.27;8.25;;;;;;;21.59;94.76;99388.59;4363151;32;34357;-79
2022/08/20 06:19:36;;;;;;;15.00;10.40;;;;;;;22.45;85.44;99360.63;4377193;32;33927;-79
2022/08/20 06:22:05;;;;;;;18.27;10.80;;;;;;;21.82;90.66;99378.75;4378860;32;32824;-79
2022/08/20 06:24:49;;;;;;;14.05;11.40;;;;;;;21.91;90.60;99378.69;4378636;32;34339;-78
2022/08/20 06:27:16;;;;;;;17.55;11.00;;;;;;;21.93;91.69;99392.72;4377403;32;34387;-80
2022/08/20 06:29:44;;;;;;;17.45;9.02;;;;;;;21.71;93.42;99398.16;4362977;32;32394;-77
2022/08/20 06:32:13;;;;;;;16.75;9.45;;;;;;;22.71;84.97;99399.03;4362730;32;33653;-79
2022/08/20 06:34:40;;;;;;;15.88;8.85;;;;;;;22.58;86.19;99404.47;4362493;32;34764;-77
2022/08/20 06:37:24;;;;;;;15.27;9.93;;;;;;;22.03;87.11;99420.75;4362183;32;34130;-78
2022/08/20 06:40:06;;;;;;;18.58;10.07;;;;;;;22.09;88.86;99433.91;4362628;32;34538;-78
2022/08/20 06:42:35;;;;;;;16.08;10.32;;;;;;;21.55;92.02;99454.47;4362852;32;34038;-78
2022/08/20 06:45:05;;;;;;;19.70;11.63;;;;;;;21.93;92.04;99456.00;4363713;32;34127;-79
2022/08/20 06:47:33;;;;;;;19.60;12.23;;;;;;;21.86;90.71;99433.19;4363047;32;33468;-80
2022/08/20 06:50:01;;;;;;;18.90;11.75;;;;;;;22.91;85.62;99431.41;4363243;32;34617;-79
2022/08/20 06:52:28;;;;;;;17.17;11.52;;;;;;;23.18;83.83;99434.63;4362409;32;34601;-79
2022/08/20 06:55:16;;;;;;;22.00;11.30;;;;;;;22.76;86.40;99447.41;4362742;32;34749;-79
2022/08/20 06:57:44;;;;;;;18.27;10.05;;;;;;;22.84;85.63;99466.69;4362924;32;33687;-78
2022/08/20 07:00:18;;;;;;;14.13;9.82;;;;;;;23.23;82.30;99476.84;4363083;32;34007;-78
2022/08/20 07:02:46;;;;;;;19.27;9.48;;;;;;;23.94;78.13;99471.53;4362405;32;33848;-79
2022/08/20 07:05:15;;;;;;;17.40;8.90;;;;;;;23.22;80.97;99470.69;4363803;32;34776;-79
2022/08/20 07:07:48;;;;;;;16.58;9.52;;;;;;;23.09;81.98;99480.53;4363384;32;34326;-78
2022/08/20 07:10:17;;;;;;;19.80;10.18;;;;;;;23.46;80.89;99484.50;4363612;32;33734;-79
2022/08/20 07:12:45;;;;;;;15.32;8.77;;;;;;;23.71;79.44;99487.69;4362967;32;34801;-78
2022/08/20 07:15:13;;;;;;;14.80;7.97;;;;;;;22.70;85.07;99485.31;4363646;32;33949;-78
2022/08/20 07:17:41;;;;;;;19.95;8.55;;;;;;;22.87;83.54;99477.22;4362278;32;33151;-78
2022/08/20 07:20:12;;;;;;;14.30;8.32;;;;;;;23.38;81.50;99481.09;4362744;32;34050;-79
2022/08/20 07:22:39;;;;;;;19.83;9.07;;;;;;;23.00;83.74;99469.16;4361097;32;33209;-78
2022/08/20 07:25:10;;;;;;;17.60;8.98;;;;;;;22.43;87.77;99481.16;4361507;32;34817;-80
2022/08/20 07:27:37;;;;;;;19.30;9.43;;;;;;;22.07;91.43;99488.44;4361923;32;34271;-78
2022/08/20 07:32:53;;;;;;;15.60;9.10;;;;;;;22.11;91.25;99502.47;4376969;32;33485;-79
2022/08/20 07:35:20;;;;;;;17.83;9.48;;;;;;;21.88;94.25;99510.53;4377907;32;33824;-78
2022/08/20 07:37:50;;;;;;;13.52;9.02;;;;;;;21.85;93.75;99531.66;4354489;32;33339;-78
2022/08/20 07:40:21;;;;;;;13.25;8.80;;;;;;;21.56;94.86;99540.56;4378321;32;34079;-79
2022/08/20 07:42:54;;;;;;;14.25;9.40;;;;;;;21.38;96.90;99547.62;4371934;32;34674;-77
2022/08/20 07:45:22;;;;;;;15.80;9.65;;;;;;;21.38;98.21;99554.62;4364630;32;34076;-78
2022/08/20 07:47:52;;;;;;;18.23;9.73;;;;;;;21.14;99.36;99568.78;4377713;32;33715;-80
2022/08/20 07:50:22;;;;;;;18.83;9.90;;;;;;;21.14;100.00;99558.22;4378442;32;34038;-79
2022/08/20 07:52:53;;;;;;;20.33;8.93;;;;;;;21.21;99.13;99559.97;4377264;32;33569;-79
2022/08/20 07:55:21;;;;;;;15.93;9.00;;;;;;;21.19;98.39;99572.28;4378597;32;34311;-79
2022/08/20 07:57:49;;;;;;;15.68;7.22;;;;;;;21.57;94.20;99589.75;4371747;32;34440;-80
2022/08/20 08:00:19;;;;;;;13.57;7.35;;;;;;;21.69;91.85;99616.09;4372997;32;33998;-78
2022/08/20 08:02:47;;;;;;;13.45;6.82;;;;;;;22.27;87.39;99616.72;4376750;32;33450;-78
2022/08/20 08:05:16;;;;;;;12.77;6.30;;;;;;;21.69;87.01;99626.63;4364229;32;33709;-79
2022/08/20 08:07:45;;;;;;;15.60;6.85;;;;;;;21.88;88.47;99637.97;4375720;32;33840;-80
2022/08/20 08:10:17;;;;;;;12.10;6.45;;;;;;;22.06;87.20;99636.13;4362303;32;33876;-79
2022/08/20 08:12:49;;;;;;;12.00;6.10;;;;;;;22.28;84.49;99621.13;4364755;32;34654;-79
2022/08/20 08:15:22;;;;;;;18.33;7.10;;;;;;;22.83;81.80;99588.16;4352511;32;33426;-80
2022/08/20 08:17:51;;;;;;;17.37;6.78;;;;;;;22.06;84.85;99605.37;4377278;32;33600;-78
2022/08/20 08:20:20;;;;;;;14.95;6.43;;;;;;;21.59;88.72;99612.59;4364857;32;34593;-82
2022/08/20 08:22:48;;;;;;;16.40;6.70;;;;;;;21.46;88.71;99608.25;4378457;32;33630;-80
2022/08/20 08:25:16;;;;;;;17.02;7.05;;;;;;;20.92;92.84;99595.13;4378138;32;33904;-81
2022/08/20 08:27:46;;;;;;;20.20;7.93;;;;;;;21.26;91.35;99587.16;4378165;32;33730;-80
2022/08/20 08:30:14;;;;;;;12.90;6.95;;;;;;;21.21;94.00;99597.72;4376698;32;33302;-82
2022/08/20 08:35:31;;;;;;;11.50;6.53;;;;;;;22.22;86.58;99615.84;4375860;32;33980;-80
2022/08/20 08:38:01;;;;;;;16.30;7.10;;;;;;;23.20;80.34;99609.00;4376839;32;33059;-81
2022/08/20 08:40:31;;;;;;;17.08;7.60;;;;;;;22.63;82.66;99596.25;4366326;32;34218;-84
2022/08/20 08:43:02;;;;;;;16.08;6.45;;;;;;;22.66;83.15;99590.97;4382318;32;34194;-83
2022/08/20 08:45:36;;;;;;;13.50;6.78;;;;;;;22.84;80.88;99564.38;4364199;32;33196;-84
2022/08/20 08:48:04;;;;;;;15.75;7.10;;;;;;;22.46;82.88;99539.19;4378102;32;33650;-81
2022/08/20 08:50:32;;;;;;;13.55;5.85;;;;;;;22.94;79.41;99529.06;4377081;32;33490;-82
2022/08/20 08:53:44;;;;;;;11.60;5.50;;;;;;;22.88;78.65;99523.84;4367045;32;33830;-83
2022/08/20 08:56:13;;;;;;;11.93;5.45;;;;;;;22.77;79.10;99525.72;4364086;32;33675;-82
2022/08/20 08:58:42;;;;;;;11.85;6.00;;;;;;;22.02;83.63;99545.63;4353526;32;34407;-84
2022/08/20 09:01:12;;;;;;;10.65;5.82;;;;;;;22.63;79.95;99544.31;4363630;32;32973;-82
2022/08/20 09:04:01;;;;;;;16.10;6.68;;;;;;;22.74;79.12;99531.03;4377064;32;33890;-83
2022/08/20 09:06:29;;;;;;;11.77;6.07;;;;;;;21.84;84.03;99528.13;4374136;32;33738;-83
2022/08/20 09:09:01;;;;;;;12.82;6.35;;;;;;;21.79;86.39;99522.03;4368273;32;33540;-83
2022/08/20 09:11:29;;;;;;;10.23;6.18;;;;;;;22.06;84.74;99515.72;4362252;32;33910;-82
2022/08/20 09:13:57;;;;;;;14.35;6.15;;;;;;;22.23;82.53;99522.63;4377921;32;34531;-82
2022/08/20 09:16:26;;;;;;;10.55;5.90;;;;;;;22.38;81.46;99533.09;4377778;32;34101;-82
2022/08/20 09:19:13;;;;;;;13.35;6.47;;;;;;;22.23;81.63;99551.63;4377612;32;33699;-82
2022/08/20 09:21:41;;;;;;;13.88;6.70;;;;;;;21.93;82.81;99575.53;4376598;32;33805;-85
2022/08/20 09:24:08;;;;;;;13.25;7.10;;;;;;;21.68;85.14;99589.72;4376791;32;33492;-87
2022/08/20 09:26:36;;;;;;;14.77;7.10;;;;;;;21.78;85.22;99597.56;4377238;32;34043;-83
2022/08/20 09:29:05;;;;;;;10.10;6.70;;;;;;;22.16;83.00;99591.25;4377510;32;34382;-83
2022/08/20 09:31:33;;;;;;;11.23;6.37;;;;;;;22.15;82.57;99589.47;4376968;32;33393;-81
2022/08/20 09:34:00;;;;;;;12.23;6.12;;;;;;;22.05;82.72;99581.66;4377214;32;34078;-81
2022/08/20 09:36:28;;;;;;;11.73;5.43;;;;;;;22.15;82.21;99568.38;4377209;32;34865;-83
2022/08/20 09:38:59;;;;;;;13.65;5.20;;;;;;;21.83;82.39;99560.66;4376751;32;33520;-82
2022/08/20 09:41:30;;;;;;;10.35;5.03;;;;;;;21.91;81.82;99573.81;4363670;32;32146;-81
2022/08/20 09:44:01;;;;;;;16.10;6.28;;;;;;;21.78;83.19;99584.41;4376696;32;34009;-82
2022/08/20 09:46:28;;;;;;;14.38;5.57;;;;;;;21.83;83.32;99594.03;4372129;32;34010;-81
2022/08/20 09:48:56;;;;;;;14.52;5.03;;;;;;;21.88;83.01;99589.63;4376556;32;34405;-81
2022/08/20 09:51:23;;;;;;;12.10;5.87;;;;;;;22.07;82.34;99580.75;4372669;32;34561;-82
2022/08/20 09:53:51;;;;;;;11.40;6.00;;;;;;;22.15;81.45;99557.81;4362547;32;33672;-82
2022/08/20 09:56:19;;;;;;;13.80;6.75;;;;;;;21.95;83.22;99551.81;4377314;32;34072;-83
2022/08/20 09:58:50;;;;;;;14.90;6.32;;;;;;;21.69;85.76;99530.84;4377756;32;34336;-82
2022/08/20 10:01:20;;;;;;;10.93;6.25;;;;;;;21.46;87.23;99507.22;4365885;32;34630;-82
2022/08/20 10:03:49;;;;;;;12.77;5.60;;;;;;;21.57;86.30;99486.97;4364926;32;33155;-82
2022/08/20 10:06:18;;;;;;;10.00;4.45;;;;;;;21.57;84.50;99465.88;4377208;32;34726;-82
2022/08/20 10:08:47;;;;;;;10.48;4.60;;;;;;;21.62;82.61;99456.22;4378015;32;33253;-82
2022/08/20 10:11:15;;;;;;;9.23;4.87;;;;;;;21.20;86.02;99452.84;4377796;32;33567;-81
2022/08/20 10:13:44;;;;;;;9.27;5.45;;;;;;;21.21;86.77;99441.44;4378288;32;33740;-81
2022/08/20 10:16:12;;;;;;;7.30;4.40;;;;;;;21.41;86.67;99415.88;4376770;32;34739;-80
2022/08/20 10:18:40;;;;;;;13.62;5.05;;;;;;;21.43;85.11;99407.97;4362525;32;34355;-80
2022/08/20 10:21:11;;;;;;;10.07;4.62;;;;;;;21.38;88.26;99394.81;4376461;32;34608;-79
2022/08/20 10:23:39;;;;;;;9.27;4.75;;;;;;;21.46;86.86;99386.00;4377018;32;34660;-80
2022/08/20 10:26:08;;;;;;;11.35;4.55;;;;;;;21.68;85.40;99392.91;4377568;32;33825;-79
2022/08/20 10:28:35;;;;;;;9.43;4.53;;;;;;;21.86;85.23;99396.28;4374394;32;33749;-79
2022/08/20 10:31:07;;;;;;;10.02;4.90;;;;;;;21.08;88.45;99426.56;4365162;32;33942;-78
2022/08/20 10:33:35;;;;;;;12.75;5.70;;;;;;;21.56;91.96;99429.87;4377762;32;34656;-79
2022/08/20 10:36:12;;;;;;;9.98;4.90;;;;;;;21.62;93.21;99427.22;4378353;32;34197;-80
2022/08/20 10:38:40;;;;;;;12.40;4.93;;;;;;;20.80;94.76;99452.97;4378801;32;34238;-80
2022/08/20 10:41:08;;;;;;;10.63;5.62;;;;;;;20.98;93.19;99489.78;4365197;32;34045;-80
2022/08/20 10:43:35;;;;;;;11.02;4.32;;;;;;;22.01;90.03;99506.94;4378317;32;33865;-80
2022/08/20 10:46:03;;;;;;;8.38;4.25;;;;;;;21.77;87.45;99511.47;4377390;32;34110;-80
2022/08/20 10:48:30;;;;;;;8.50;4.37;;;;;;;22.88;83.49;99518.56;4374441;32;34371;-80
2022/08/20 10:50:58;;;;;;;7.47;3.80;;;;;;;23.54;80.72;99509.06;4374470;32;34036;-80
2022/08/20 10:53:26;;;;;;;7.45;3.20;;;;;;;24.25;77.68;99498.37;4382575;32;34024;-80
2022/08/20 10:55:54;;;;;;;8.02;3.12;;;;;;;24.64;70.64;99503.06;4377100;32;34655;-80
2022/08/20 10:58:21;;;;;;;8.70;3.30;;;;;;;23.86;74.41;99510.44;4365005;32;34223;-79
2022/08/20 11:00:51;;;;;;;5.72;3.65;;;;;;;24.27;74.02;99516.88;4376076;32;33609;-79
2022/08/20 11:03:19;;;;;;;12.65;3.20;;;;;;;24.74;72.90;99528.47;4376717;32;34413;-80
2022/08/20 11:05:46;;;;;;;8.27;3.40;;;;;;;23.56;74.84;99528.41;4363866;32;34643;-80
2022/08/20 11:08:14;;;;;;;8.70;3.65;;;;;;;23.75;77.85;99535.22;4381637;32;33267;-79
2022/08/20 11:11:00;;;;;;;9.43;3.20;;;;;;;24.50;75.54;99530.63;4376627;32;34536;-79
2022/08/20 11:13:27;;;;;;;7.80;3.40;;;;;;;22.96;80.59;99535.22;4378792;32;34485;-79
2022/08/20 11:15:55;;;;;;;9.98;3.95;;;;;;;23.48;80.08;99525.00;4363294;32;34067;-79
2022/08/20 11:18:22;;;;;;;8.35;3.80;;;;;;;24.73;73.53;99521.44;4375561;32;33798;-79
2022/08/20 11:20:51;;;;;;;10.48;3.47;;;;;;;24.18;75.79;99533.75;4377458;32;33669;-81
2022/08/20 11:23:18;;;;;;;11.18;3.40;;;;;;;24.70;73.01;99532.09;4378816;32;34869;-80
2022/08/20 11:25:46;;;;;;;6.90;3.05;;;;;;;24.55;73.15;99527.06;4377477;32;34998;-78
2022/08/20 11:28:14;;;;;;;8.10;3.15;;;;;;;25.36;69.25;99530.88;4364630;32;33551;-82
2022/08/20 11:30:41;;;;;;;8.90;3.30;;;;;;;25.88;66.72;99532.47;4381781;32;34002;-80
2022/08/20 11:33:09;;;;;;;7.85;3.53;;;;;;;25.35;70.57;99531.81;4365086;32;33836;-79
2022/08/20 11:35:37;;;;;;;8.40;3.55;;;;;;;25.79;65.68;99531.78;4375848;32;34090;-81
2022/08/20 11:38:17;;;;;;;8.63;3.90;;;;;;;25.60;68.20;99521.56;4377102;32;33517;-78
2022/08/20 11:40:47;;;;;;;8.13;3.67;;;;;;;24.89;70.14;99517.59;4357864;32;34503;-83
2022/08/20 11:43:15;;;;;;;8.38;3.47;;;;;;;24.68;70.66;99515.34;4374555;32;33167;-76
2022/08/20 11:45:51;;;;;;;6.75;3.42;;;;;;;24.96;69.44;99514.88;4351530;32;33023;-78